createdAt,value
2018-12-02T00:01:00.586Z,-0.67
2018-12-02T00:03:29.514Z,-0.69
2018-12-02T00:05:58.412Z,-0.74
2018-12-02T00:08:28.553Z,-0.86
2018-12-02T00:10:57.391Z,-0.89
2018-12-02T00:13:26.208Z,-1.00
2018-12-02T00:15:55.077Z,-0.97
2018-12-02T00:18:23.909Z,-0.89
2018-12-02T00:20:52.749Z,-0.85
2018-12-02T00:23:21.625Z,-0.85
2018-12-02T00:25:50.454Z,-0.94
2018-12-02T00:28:19.316Z,-0.96
2018-12-02T00:30:48.273Z,-0.93
2018-12-02T00:33:17.129Z,-0.97
2018-12-02T00:35:46.015Z,-0.99
2018-12-02T00:38:14.888Z,-0.98
2018-12-02T00:40:50.344Z,-0.93
2018-12-02T00:43:20.519Z,-0.86
2018-12-02T00:45:49.433Z,-1.02
2018-12-02T00:48:18.293Z,-1.02
2018-12-02T00:50:48.658Z,-1.04
2018-12-02T00:53:17.488Z,-1.08
2018-12-02T00:56:01.345Z,-1.04
2018-12-02T00:58:30.196Z,-1.09
2018-12-02T01:00:59.107Z,-1.06
2018-12-02T01:03:28.014Z,-1.04
2018-12-02T01:05:56.905Z,-1.06
2018-12-02T01:08:25.766Z,-1.00
2018-12-02T01:10:54.851Z,-1.00
2018-12-02T01:13:23.689Z,-0.95
2018-12-02T01:15:52.505Z,-0.91
2018-12-02T01:18:21.464Z,-0.95
2018-12-02T01:20:50.317Z,-1.07
2018-12-02T01:23:19.162Z,-1.17
2018-12-02T01:25:48.041Z,-1.20
2018-12-02T01:28:17.540Z,-1.20
2018-12-02T01:30:46.409Z,-1.22
2018-12-02T01:33:21.965Z,-1.14
2018-12-02T01:35:50.806Z,-1.29
2018-12-02T01:38:19.689Z,-1.24
2018-12-02T01:40:48.633Z,-1.19
2018-12-02T01:43:17.471Z,-1.15
2018-12-02T01:45:46.308Z,-1.10
2018-12-02T01:48:15.185Z,-1.17
2018-12-02T01:50:44.061Z,-1.35
2018-12-02T01:53:12.945Z,-1.32
2018-12-02T01:55:41.828Z,-1.37
2018-12-02T01:58:10.669Z,-1.42
2018-12-02T02:00:39.561Z,-1.46
2018-12-02T02:03:08.503Z,-1.44
2018-12-02T02:05:37.349Z,-1.50
2018-12-02T02:08:06.765Z,-1.48
2018-12-02T02:10:35.666Z,-1.42
2018-12-02T02:13:04.573Z,-1.44
2018-12-02T02:15:33.429Z,-1.52
2018-12-02T02:18:08.673Z,-1.53
2018-12-02T02:20:37.510Z,-1.50
2018-12-02T02:23:06.772Z,-1.44
2018-12-02T02:25:35.693Z,-1.45
2018-12-02T02:28:04.561Z,-1.45
2018-12-02T02:30:33.461Z,-1.52
2018-12-02T02:33:02.291Z,-1.49
2018-12-02T02:35:31.130Z,-1.47
2018-12-02T02:38:00.029Z,-1.44
2018-12-02T02:40:30.049Z,-1.52
2018-12-02T02:42:58.912Z,-1.51
2018-12-02T02:45:27.884Z,-1.66
2018-12-02T02:47:56.713Z,-1.63
2018-12-02T02:50:26.381Z,-1.61
2018-12-02T02:53:01.406Z,-1.54
2018-12-02T02:55:30.368Z,-1.49
2018-12-02T02:57:59.228Z,-1.44
2018-12-02T03:00:28.992Z,-1.46
2018-12-02T03:02:57.853Z,-1.50
2018-12-02T03:05:26.711Z,-1.50
2018-12-02T03:07:57.357Z,-1.47
2018-12-02T03:10:26.733Z,-1.44
2018-12-02T03:12:55.620Z,-1.49
2018-12-02T03:15:31.421Z,-1.47
2018-12-02T03:18:00.254Z,-1.60
2018-12-02T03:20:29.095Z,-1.62
2018-12-02T03:22:57.966Z,-1.67
2018-12-02T03:25:27.428Z,-1.67
2018-12-02T03:27:56.317Z,-1.75
2018-12-02T03:30:26.045Z,-1.76
2018-12-02T03:32:55.156Z,-1.76
2018-12-02T03:35:25.057Z,-1.72
2018-12-02T03:37:54.797Z,-1.78
2018-12-02T03:40:27.629Z,-1.77
2018-12-02T03:42:56.607Z,-1.75
2018-12-02T03:45:27.057Z,-1.78
2018-12-02T03:47:55.949Z,-1.89
2018-12-02T03:50:24.996Z,-1.91
2018-12-02T03:52:53.889Z,-1.92
2018-12-02T03:55:22.753Z,-1.90
2018-12-02T03:57:51.779Z,-1.93
2018-12-02T04:00:23.797Z,-1.93
2018-12-02T04:02:53.437Z,-2.00
2018-12-02T04:05:23.316Z,-2.11
2018-12-02T04:07:52.606Z,-2.17
2018-12-02T04:10:22.039Z,-2.22
2018-12-02T04:12:51.796Z,-2.20
2018-12-02T04:15:21.549Z,-2.30
2018-12-02T04:17:50.422Z,-2.24
2018-12-02T04:20:19.857Z,-2.19
2018-12-02T04:22:50.399Z,-2.15
2018-12-02T04:25:27.245Z,-2.15
2018-12-02T04:27:56.154Z,-2.20
2018-12-02T04:30:25.201Z,-2.15
2018-12-02T04:32:54.544Z,-2.12
2018-12-02T04:35:24.401Z,-2.23
2018-12-02T04:37:53.270Z,-2.18
2018-12-02T04:40:22.173Z,-2.15
2018-12-02T04:42:51.043Z,-2.11
2018-12-02T04:45:20.393Z,-2.00
2018-12-02T04:47:49.469Z,-2.05
2018-12-02T04:50:21.505Z,-1.98
2018-12-02T04:52:50.480Z,-1.98
2018-12-02T04:55:19.338Z,-1.93
2018-12-02T04:57:48.186Z,-2.02
2018-12-02T05:00:18.882Z,-2.02
2018-12-02T05:02:48.863Z,-2.08
2018-12-02T05:05:22.714Z,-2.12
2018-12-02T05:07:51.666Z,-2.20
2018-12-02T05:10:21.140Z,-2.19
2018-12-02T05:12:50.710Z,-2.11
2018-12-02T05:15:20.306Z,-2.03
2018-12-02T05:17:50.779Z,-2.06
2018-12-02T05:20:20.498Z,-1.97
2018-12-02T05:22:49.365Z,-2.09
2018-12-02T05:25:18.899Z,-2.12
2018-12-02T05:27:47.741Z,-2.06
2018-12-02T05:30:24.417Z,-2.04
2018-12-02T05:32:53.991Z,-2.04
2018-12-02T05:35:24.277Z,-2.17
2018-12-02T05:37:53.100Z,-2.12
2018-12-02T05:40:22.877Z,-2.12
2018-12-02T05:42:55.451Z,-2.38
2018-12-02T05:45:24.337Z,-2.40
2018-12-02T05:47:53.377Z,-2.61
2018-12-02T05:50:24.340Z,-2.59
2018-12-02T05:52:55.317Z,-2.46
2018-12-02T05:55:27.124Z,-2.45
2018-12-02T05:57:56.462Z,-2.40
2018-12-02T06:00:25.339Z,-2.39
2018-12-02T06:02:54.231Z,-2.30
2018-12-02T06:05:23.113Z,-2.18
2018-12-02T06:07:51.960Z,-2.12
2018-12-02T06:10:21.813Z,-2.01
2018-12-02T06:12:50.906Z,-1.95
2018-12-02T06:15:20.649Z,-1.91
2018-12-02T06:17:49.582Z,-1.73
2018-12-02T06:20:22.287Z,-1.57
2018-12-02T06:22:52.120Z,-1.50
2018-12-02T06:25:21.026Z,-1.49
2018-12-02T06:27:49.883Z,-1.38
2018-12-02T06:30:23.428Z,-1.25
2018-12-02T06:32:58.324Z,-1.24
2018-12-02T06:35:27.217Z,-1.26
2018-12-02T06:37:56.863Z,-1.24
2018-12-02T06:40:26.749Z,-1.26
2018-12-02T06:42:55.648Z,-1.24
2018-12-02T06:45:24.557Z,-1.27
2018-12-02T06:47:53.449Z,-1.20
2018-12-02T06:50:25.176Z,-1.12
2018-12-02T06:52:54.821Z,-1.03
2018-12-02T06:55:49.356Z,-1.01
2018-12-02T07:00:37.715Z,-1.01
2018-12-02T07:04:23.512Z,-1.04
2018-12-02T07:06:53.601Z,-0.98
2018-12-02T07:09:22.447Z,-0.93
2018-12-02T07:11:51.274Z,-0.84
2018-12-02T07:14:20.189Z,-0.86
2018-12-02T07:16:49.124Z,-0.77
2018-12-02T07:19:25.681Z,-0.78
2018-12-02T07:22:05.421Z,-0.60
2018-12-02T07:24:40.833Z,-0.63
2018-12-02T07:27:11.802Z,-0.57
2018-12-02T07:29:40.960Z,-0.52
2018-12-02T07:32:09.864Z,-0.42
2018-12-02T07:34:38.713Z,-0.37
2018-12-02T07:37:12.583Z,-0.47
2018-12-02T07:40:44.086Z,-0.34
2018-12-02T07:43:13.563Z,-0.35
2018-12-02T07:45:43.701Z,-0.33
2018-12-02T07:48:13.101Z,-0.23
2018-12-02T07:50:41.948Z,-0.17
2018-12-02T07:53:10.866Z,-0.06
2018-12-02T07:55:39.735Z,-0.04
2018-12-02T07:58:12.705Z,0.11
2018-12-02T08:00:41.621Z,0.16
2018-12-02T08:03:10.454Z,0.32
2018-12-02T08:05:39.341Z,0.38
2018-12-02T08:08:08.335Z,0.52
2018-12-02T08:10:37.183Z,0.54
2018-12-02T08:13:07.715Z,0.51
2018-12-02T08:15:36.621Z,0.66
2018-12-02T08:18:05.561Z,0.73
2018-12-02T08:20:34.450Z,0.86
2018-12-02T08:23:03.395Z,0.85
2018-12-02T08:25:32.236Z,1.07
2018-12-02T08:28:01.101Z,1.17
2018-12-02T08:30:30.033Z,1.21
2018-12-02T08:32:58.955Z,1.12
2018-12-02T08:35:28.966Z,1.11
2018-12-02T08:38:04.562Z,1.00
2018-12-02T08:40:33.397Z,1.06
2018-12-02T08:43:02.258Z,1.11
2018-12-02T08:45:31.142Z,1.02
2018-12-02T08:48:00.014Z,1.16
2018-12-02T08:50:28.926Z,1.11
2018-12-02T08:52:57.849Z,1.20
2018-12-02T08:55:27.939Z,1.29
2018-12-02T08:57:56.837Z,1.44
2018-12-02T09:00:26.405Z,1.54
2018-12-02T09:02:58.205Z,1.60
2018-12-02T09:05:27.140Z,1.68
2018-12-02T09:07:57.387Z,1.53
2018-12-02T09:10:28.613Z,1.98
2018-12-02T09:12:59.071Z,2.31
2018-12-02T09:15:28.048Z,2.33
2018-12-02T09:17:58.324Z,2.33
2018-12-02T09:20:28.548Z,2.58
2018-12-02T09:22:57.409Z,2.34
2018-12-02T09:25:26.308Z,2.52
2018-12-02T09:27:55.177Z,2.60
2018-12-02T09:30:28.873Z,2.57
2018-12-02T09:32:57.777Z,2.57
2018-12-02T09:35:26.661Z,2.72
2018-12-02T09:37:56.832Z,2.53
2018-12-02T09:40:25.697Z,2.81
2018-12-02T09:42:55.360Z,2.86
2018-12-02T09:45:25.489Z,3.00
2018-12-02T09:47:55.110Z,3.00
2018-12-02T09:50:23.984Z,3.05
2018-12-02T09:52:54.302Z,3.05
2018-12-02T09:55:31.720Z,3.30
2018-12-02T09:58:00.679Z,3.28
2018-12-02T10:00:34.087Z,3.45
2018-12-02T10:02:58.470Z,3.41
2018-12-02T10:05:28.582Z,3.60
2018-12-02T10:07:57.461Z,3.74
2018-12-02T10:10:26.331Z,4.00
2018-12-02T10:12:59.697Z,3.99
2018-12-02T10:15:29.965Z,4.37
2018-12-02T10:17:58.825Z,4.14
2018-12-02T10:20:27.746Z,4.48
2018-12-02T10:22:56.589Z,4.72
2018-12-02T10:25:25.471Z,4.72
2018-12-02T10:27:54.377Z,4.91
2018-12-02T10:30:25.765Z,5.18
2018-12-02T10:32:55.875Z,4.16
2018-12-02T10:35:24.726Z,3.91
2018-12-02T10:37:54.166Z,4.43
2018-12-02T10:40:24.908Z,4.80
2018-12-02T10:42:53.753Z,5.01
2018-12-02T10:45:24.993Z,5.22
2018-12-02T10:47:55.892Z,5.47
2018-12-02T10:50:27.069Z,5.91
2018-12-02T10:53:00.050Z,6.20
2018-12-02T10:55:43.213Z,6.70
2018-12-02T10:58:15.504Z,6.80
2018-12-02T11:00:49.506Z,6.88
2018-12-02T11:03:18.360Z,6.91
2018-12-02T11:05:47.205Z,6.83
2018-12-02T11:08:17.293Z,6.94
2018-12-02T11:10:46.157Z,7.04
2018-12-02T11:13:15.025Z,7.10
2018-12-02T11:15:45.364Z,7.31
2018-12-02T11:18:14.941Z,6.97
2018-12-02T11:20:44.217Z,7.44
2018-12-02T11:23:13.323Z,7.70
2018-12-02T11:25:42.200Z,7.69
2018-12-02T11:28:11.480Z,7.44
2018-12-02T11:30:40.584Z,7.36
2018-12-02T11:33:09.572Z,7.34
2018-12-02T11:35:38.492Z,7.40
2018-12-02T11:38:08.354Z,7.39
2018-12-02T11:40:37.943Z,7.59
2018-12-02T11:43:07.929Z,7.48
2018-12-02T11:45:36.793Z,7.19
2018-12-02T11:48:06.163Z,7.06
2018-12-02T11:50:35.091Z,7.18
2018-12-02T11:53:04.005Z,7.16
2018-12-02T11:55:32.873Z,7.09
2018-12-02T11:58:01.825Z,7.19
2018-12-02T12:00:31.951Z,6.99
2018-12-02T12:03:01.051Z,7.01
2018-12-02T12:05:31.337Z,6.97
2018-12-02T12:08:00.209Z,7.07
2018-12-02T12:10:29.589Z,7.08
2018-12-02T12:12:59.853Z,7.46
2018-12-02T12:15:30.472Z,7.33
2018-12-02T12:17:59.909Z,7.47
2018-12-02T12:20:33.094Z,7.57
2018-12-02T12:23:02.040Z,7.48
2018-12-02T12:25:30.908Z,7.34
2018-12-02T12:28:00.159Z,7.34
2018-12-02T12:30:30.424Z,7.37
2018-12-02T12:32:59.306Z,7.33
2018-12-02T12:35:28.229Z,7.37
2018-12-02T12:37:57.237Z,7.48
2018-12-02T12:40:32.568Z,7.39
2018-12-02T12:43:12.745Z,7.44
2018-12-02T12:45:41.631Z,7.76
2018-12-02T12:48:10.503Z,7.85
2018-12-02T12:50:39.394Z,7.98
2018-12-02T12:53:08.272Z,8.03
2018-12-02T12:55:37.173Z,7.91
2018-12-02T12:58:06.342Z,7.92
2018-12-02T13:00:35.223Z,7.77
2018-12-02T13:03:04.165Z,7.59
2018-12-02T13:05:33.098Z,7.60
2018-12-02T13:08:01.971Z,7.48
2018-12-02T13:10:30.838Z,7.38
2018-12-02T13:12:59.733Z,7.33
2018-12-02T13:15:28.631Z,7.49
2018-12-02T13:17:59.455Z,7.53
2018-12-02T13:20:31.189Z,7.56
2018-12-02T13:23:00.082Z,7.40
2018-12-02T13:25:28.999Z,7.30
2018-12-02T13:27:59.137Z,6.99
2018-12-02T13:30:27.984Z,6.80
2018-12-02T13:32:58.212Z,6.77
2018-12-02T13:35:27.158Z,6.51
2018-12-02T13:37:56.054Z,6.35
2018-12-02T13:40:24.943Z,6.29
2018-12-02T13:44:30.175Z,6.32
2018-12-02T13:46:59.061Z,5.98
2018-12-02T13:49:27.973Z,6.02
2018-12-02T13:51:56.929Z,6.02
2018-12-02T13:54:30.912Z,6.01
2018-12-02T13:56:59.828Z,5.98
2018-12-02T13:59:28.713Z,5.89
2018-12-02T14:01:58.141Z,5.81
2018-12-02T14:04:27.073Z,5.79
2018-12-02T14:06:55.980Z,5.69
2018-12-02T14:09:24.845Z,5.63
2018-12-02T14:11:53.737Z,5.74
2018-12-02T14:14:22.645Z,5.80
2018-12-02T14:17:00.806Z,5.83
2018-12-02T14:19:29.677Z,5.99
2018-12-02T14:21:58.506Z,6.10
2018-12-02T14:24:27.382Z,6.01
2018-12-02T14:26:56.235Z,5.86
2018-12-02T14:29:33.235Z,5.68
2018-12-02T14:32:04.298Z,5.55
2018-12-02T14:34:33.136Z,5.42
2018-12-02T14:37:02.019Z,5.33
2018-12-02T14:39:30.869Z,5.19
2018-12-02T14:41:59.725Z,5.06
2018-12-02T14:44:29.668Z,5.01
2018-12-02T14:46:57.550Z,5.03
2018-12-02T14:49:26.380Z,4.89
2018-12-02T14:51:55.232Z,4.86
2018-12-02T14:54:24.112Z,4.93
2018-12-02T14:56:52.977Z,4.88
2018-12-02T14:59:21.825Z,4.88
2018-12-02T15:01:52.541Z,4.83
2018-12-02T15:04:21.365Z,4.83
2018-12-02T15:06:50.237Z,4.75
2018-12-02T15:09:19.101Z,4.74
2018-12-02T15:11:48.023Z,4.73
2018-12-02T15:14:16.880Z,4.71
2018-12-02T15:16:45.771Z,4.70
2018-12-02T15:19:14.644Z,4.67
2018-12-02T15:21:44.722Z,4.62
2018-12-02T15:24:13.613Z,4.61
2018-12-02T15:26:42.478Z,4.47
2018-12-02T15:29:11.313Z,4.51
2018-12-02T15:31:40.298Z,4.53
2018-12-02T15:34:09.187Z,4.56
2018-12-02T15:36:38.011Z,4.50
2018-12-02T15:39:10.228Z,4.46
2018-12-02T15:41:39.167Z,4.51
2018-12-02T15:44:08.143Z,4.43
2018-12-02T15:46:37.039Z,4.34
2018-12-02T15:49:06.057Z,4.31
2018-12-02T15:51:36.281Z,4.23
2018-12-02T15:54:05.234Z,4.18
2018-12-02T15:56:34.129Z,4.14
2018-12-02T15:59:07.054Z,4.14
2018-12-02T16:01:36.174Z,4.11
2018-12-02T16:04:05.108Z,4.03
2018-12-02T16:06:33.968Z,4.04
2018-12-02T16:09:04.146Z,4.09
2018-12-02T16:11:33.018Z,4.00
2018-12-02T16:14:01.862Z,4.03
2018-12-02T16:16:30.694Z,4.06
2018-12-02T16:18:59.631Z,4.09
2018-12-02T16:21:29.847Z,4.04
2018-12-02T16:23:58.705Z,3.91
2018-12-02T16:26:28.821Z,4.14
2018-12-02T16:28:57.661Z,4.29
2018-12-02T16:31:26.509Z,4.10
2018-12-02T16:33:56.727Z,4.08
2018-12-02T16:36:25.592Z,3.96
2018-12-02T16:38:54.435Z,3.86
2018-12-02T16:41:24.630Z,3.71
2018-12-02T16:43:54.854Z,3.64
2018-12-02T16:46:23.879Z,3.68
2018-12-02T16:48:52.717Z,3.64
2018-12-02T16:51:21.600Z,3.68
2018-12-02T16:53:50.475Z,3.60
2018-12-02T16:56:19.657Z,3.55
2018-12-02T16:59:01.479Z,3.46
2018-12-02T17:01:32.297Z,3.43
2018-12-02T17:04:02.577Z,3.52
2018-12-02T17:06:31.433Z,3.48
2018-12-02T17:09:00.391Z,3.52
2018-12-02T17:11:30.597Z,3.54
2018-12-02T17:13:59.445Z,3.43
2018-12-02T17:16:28.299Z,3.47
2018-12-02T17:18:58.496Z,3.50
2018-12-02T17:21:27.346Z,3.42
2018-12-02T17:23:56.246Z,3.45
2018-12-02T17:26:26.409Z,3.44
2018-12-02T17:28:55.331Z,3.42
2018-12-02T17:31:27.245Z,3.43
2018-12-02T17:33:56.098Z,3.48
2018-12-02T17:36:24.985Z,3.55
2018-12-02T17:39:04.557Z,3.51
2018-12-02T17:41:33.454Z,3.55
2018-12-02T17:44:02.310Z,3.58
2018-12-02T17:46:31.145Z,3.58
2018-12-02T17:49:00.018Z,3.54
2018-12-02T17:51:28.882Z,3.52
2018-12-02T17:53:59.027Z,3.47
2018-12-02T17:56:27.873Z,3.46
2018-12-02T17:58:56.717Z,3.47
2018-12-02T18:01:25.622Z,3.49
2018-12-02T18:03:54.474Z,3.48
2018-12-02T18:06:23.337Z,3.58
2018-12-02T18:08:52.246Z,3.60
2018-12-02T18:11:21.105Z,3.58
2018-12-02T18:13:49.945Z,3.57
2018-12-02T18:16:18.924Z,3.40
2018-12-02T18:18:47.785Z,3.32
2018-12-02T18:21:19.478Z,3.31
2018-12-02T18:23:49.574Z,2.99
2018-12-02T18:26:18.438Z,3.23
2018-12-02T18:28:47.287Z,3.30
2018-12-02T18:31:16.226Z,3.35
2018-12-02T18:33:45.062Z,3.40
2018-12-02T18:36:16.266Z,3.27
2018-12-02T18:38:46.553Z,3.22
2018-12-02T18:41:21.295Z,3.11
2018-12-02T18:43:50.186Z,2.99
2018-12-02T18:46:20.299Z,3.12
2018-12-02T18:48:50.577Z,3.13
2018-12-02T18:51:19.430Z,3.12
2018-12-02T18:53:48.336Z,3.11
2018-12-02T18:56:17.242Z,3.11
2018-12-02T18:58:46.082Z,3.08
2018-12-02T19:01:14.958Z,3.06
2018-12-02T19:03:45.064Z,2.91
2018-12-02T19:06:13.937Z,2.78
2018-12-02T19:08:42.777Z,2.77
2018-12-02T19:11:14.425Z,2.81
2018-12-02T19:13:44.493Z,2.76
2018-12-02T19:16:13.351Z,2.79
2018-12-02T19:18:43.497Z,2.90
2018-12-02T19:21:20.929Z,2.90
2018-12-02T19:23:49.789Z,2.81
2018-12-02T19:26:18.684Z,2.85
2018-12-02T19:28:47.538Z,2.92
2018-12-02T19:31:16.429Z,2.80
2018-12-02T19:33:45.309Z,2.81
2018-12-02T19:36:21.617Z,2.74
2018-12-02T19:38:50.500Z,2.73
2018-12-02T19:41:19.325Z,2.70
2018-12-02T19:43:48.164Z,2.68
2018-12-02T19:46:18.233Z,2.62
2018-12-02T19:48:47.096Z,2.55
2018-12-02T19:51:15.949Z,2.54
2018-12-02T19:53:44.849Z,2.50
2018-12-02T19:56:13.720Z,2.39
2018-12-02T19:58:42.576Z,2.46
2018-12-02T20:01:12.715Z,2.38
2018-12-02T20:03:41.562Z,2.39
2018-12-02T20:06:10.448Z,2.37
2018-12-02T20:08:39.350Z,2.37
2018-12-02T20:11:08.197Z,2.52
2018-12-02T20:13:37.018Z,2.56
2018-12-02T20:16:10.956Z,2.70
2018-12-02T20:18:39.819Z,2.73
2018-12-02T20:21:10.465Z,2.75
2018-12-02T20:23:45.579Z,2.80
2018-12-02T20:26:14.438Z,2.83
2018-12-02T20:28:48.252Z,2.86
2018-12-02T20:31:20.001Z,2.77
2018-12-02T20:33:48.881Z,2.28
2018-12-02T20:36:17.720Z,2.14
2018-12-02T20:38:46.594Z,2.06
2018-12-02T20:41:15.489Z,1.84
2018-12-02T20:43:44.372Z,1.68
2018-12-02T20:46:13.265Z,1.75
2018-12-02T20:48:42.234Z,1.92
2018-12-02T20:51:11.085Z,2.01
2018-12-02T20:53:39.933Z,2.11
2018-12-02T20:56:10.185Z,2.16
2018-12-02T20:58:39.040Z,2.21
2018-12-02T21:01:07.890Z,2.32
2018-12-02T21:03:40.209Z,2.34
2018-12-02T21:06:12.083Z,2.35
2018-12-02T21:08:40.977Z,2.38
2018-12-02T21:11:09.853Z,2.39
2018-12-02T21:13:38.700Z,2.45
2018-12-02T21:16:07.683Z,2.49
2018-12-02T21:18:36.590Z,2.53
2018-12-02T21:21:05.657Z,2.61
2018-12-02T21:23:34.528Z,2.63
2018-12-02T21:26:04.365Z,2.63
2018-12-02T21:28:33.189Z,2.58
2018-12-02T21:31:02.121Z,2.37
2018-12-02T21:33:30.976Z,2.20
2018-12-02T21:35:59.834Z,2.12
2018-12-02T21:38:28.721Z,1.98
2018-12-02T21:40:57.558Z,1.97
2018-12-02T21:43:26.413Z,1.98
2018-12-02T21:45:55.332Z,1.94
2018-12-02T21:48:24.174Z,1.81
2018-12-02T21:50:55.288Z,1.64
2018-12-02T21:53:24.209Z,1.77
2018-12-02T21:55:53.365Z,2.08
2018-12-02T21:58:22.260Z,2.31
2018-12-02T22:00:56.391Z,2.34
2018-12-02T22:03:31.481Z,2.33
2018-12-02T22:06:00.480Z,2.28
2018-12-02T22:08:29.330Z,2.22
2018-12-02T22:10:58.176Z,2.19
2018-12-02T22:13:28.234Z,2.21
2018-12-02T22:15:57.070Z,2.32
2018-12-02T22:18:25.944Z,2.30
2018-12-02T22:20:54.805Z,2.25
2018-12-02T22:23:23.667Z,2.19
2018-12-02T22:25:52.634Z,2.12
2018-12-02T22:28:21.482Z,2.06
2018-12-02T22:30:50.329Z,1.99
2018-12-02T22:33:19.222Z,2.03
2018-12-02T22:35:48.090Z,1.66
2018-12-02T22:38:16.934Z,1.35
2018-12-02T22:40:45.817Z,1.16
2018-12-02T22:43:14.661Z,0.92
2018-12-02T22:45:43.515Z,0.80
2018-12-02T22:48:12.980Z,0.54
2018-12-02T22:50:41.853Z,0.43
2018-12-02T22:53:10.714Z,0.38
2018-12-02T22:55:40.808Z,0.20
2018-12-02T22:58:09.657Z,0.18
2018-12-02T23:00:44.194Z,0.20
2018-12-02T23:03:14.729Z,0.18
2018-12-02T23:05:44.992Z,0.09
2018-12-02T23:08:13.985Z,0.16
2018-12-02T23:10:42.972Z,0.23
2018-12-02T23:13:12.649Z,0.14
2018-12-02T23:15:42.689Z,0.22
2018-12-02T23:18:12.864Z,0.19
2018-12-02T23:20:41.772Z,0.32
2018-12-02T23:23:10.697Z,0.31
2018-12-02T23:25:39.541Z,0.21
2018-12-02T23:28:08.773Z,0.19
2018-12-02T23:30:37.801Z,0.20
2018-12-02T23:33:07.296Z,0.20
2018-12-02T23:35:36.281Z,0.09
2018-12-02T23:38:11.705Z,0.09
2018-12-02T23:40:40.602Z,0.09
2018-12-02T23:43:09.493Z,0.07
2018-12-02T23:45:39.912Z,0.11
2018-12-02T23:48:08.827Z,0.16
2018-12-02T23:50:37.725Z,-0.11
2018-12-02T23:53:07.219Z,0.00
2018-12-02T23:55:36.117Z,-0.23
2018-12-02T23:58:05.040Z,-0.09
